createdAt,value
2022-08-31T00:00:34.285Z,19.30
2022-08-31T00:03:21.504Z,19.30
2022-08-31T00:05:49.749Z,19.30
2022-08-31T00:08:18.384Z,19.30
2022-08-31T00:10:47.986Z,19.30
2022-08-31T00:13:18.026Z,19.20
2022-08-31T00:15:47.034Z,19.20
2022-08-31T00:18:17.518Z,19.20
2022-08-31T00:20:47.274Z,19.10
2022-08-31T00:23:18.001Z,19.10
2022-08-31T00:25:49.521Z,19.10
2022-08-31T00:28:19.737Z,19.10
2022-08-31T00:30:49.763Z,19.00
2022-08-31T00:33:19.756Z,19.00
2022-08-31T00:35:48.435Z,18.90
2022-08-31T00:38:16.714Z,18.90
2022-08-31T00:40:47.903Z,18.90
2022-08-31T00:43:40.521Z,18.90
2022-08-31T00:46:10.804Z,18.80
2022-08-31T00:48:46.097Z,18.80
2022-08-31T00:51:18.484Z,18.80
2022-08-31T00:53:49.679Z,18.80
2022-08-31T00:56:20.288Z,18.80
2022-08-31T00:58:54.898Z,18.80
2022-08-31T01:01:24.027Z,18.70
2022-08-31T01:03:54.175Z,18.70
2022-08-31T01:06:23.714Z,18.70
2022-08-31T01:08:53.050Z,18.60
2022-08-31T01:11:22.172Z,18.60
2022-08-31T01:13:50.699Z,18.60
2022-08-31T01:16:26.009Z,18.50
2022-08-31T01:19:00.690Z,18.50
2022-08-31T01:21:33.985Z,18.50
2022-08-31T01:24:05.028Z,18.50
2022-08-31T01:26:33.425Z,18.50
2022-08-31T01:29:07.345Z,18.50
2022-08-31T01:31:41.700Z,18.50
2022-08-31T01:34:10.343Z,18.50
2022-08-31T01:36:41.705Z,18.50
2022-08-31T01:39:12.348Z,18.50
2022-08-31T01:41:44.033Z,18.50
2022-08-31T01:44:13.794Z,18.50
2022-08-31T01:46:43.056Z,18.50
2022-08-31T01:49:11.443Z,18.50
2022-08-31T01:51:39.697Z,18.40
2022-08-31T01:54:07.938Z,18.50
2022-08-31T01:56:43.296Z,18.40
2022-08-31T01:59:14.932Z,18.40
2022-08-31T02:01:47.662Z,18.40
2022-08-31T02:04:18.954Z,18.30
2022-08-31T02:06:51.997Z,18.30
2022-08-31T02:09:21.115Z,18.30
2022-08-31T02:11:51.387Z,18.30
2022-08-31T02:14:20.630Z,18.30
2022-08-31T02:16:50.151Z,18.20
2022-08-31T02:19:18.863Z,18.20
2022-08-31T02:21:47.097Z,18.20
2022-08-31T02:24:15.417Z,18.20
2022-08-31T02:26:43.696Z,18.10
2022-08-31T02:29:13.395Z,18.10
2022-08-31T02:31:41.638Z,18.10
2022-08-31T02:34:09.914Z,18.00
2022-08-31T02:36:38.292Z,18.00
2022-08-31T02:39:08.106Z,18.00
2022-08-31T02:41:37.147Z,18.00
2022-08-31T02:44:06.417Z,18.00
2022-08-31T02:46:36.299Z,17.90
2022-08-31T02:49:05.841Z,17.90
2022-08-31T02:51:34.099Z,17.90
2022-08-31T02:54:02.398Z,17.90
2022-08-31T02:56:30.569Z,17.80
2022-08-31T02:58:59.145Z,17.80
2022-08-31T03:01:27.474Z,17.80
2022-08-31T03:03:57.671Z,17.80
2022-08-31T03:06:26.084Z,17.80
2022-08-31T03:08:54.500Z,17.80
2022-08-31T03:11:22.732Z,17.80
2022-08-31T03:13:54.163Z,17.80
2022-08-31T03:16:25.171Z,17.70
2022-08-31T03:18:53.761Z,17.70
2022-08-31T03:21:23.426Z,17.70
2022-08-31T03:23:51.690Z,17.70
2022-08-31T03:26:19.954Z,17.70
2022-08-31T03:28:48.179Z,17.70
2022-08-31T03:31:16.564Z,17.70
2022-08-31T03:33:44.878Z,17.60
2022-08-31T03:36:15.842Z,17.70
2022-08-31T03:38:45.441Z,17.60
2022-08-31T03:41:15.234Z,17.60
2022-08-31T03:43:43.814Z,17.60
2022-08-31T03:46:12.401Z,17.50
2022-08-31T03:48:41.077Z,17.50
2022-08-31T03:51:09.800Z,17.50
2022-08-31T03:53:38.010Z,17.50
2022-08-31T03:56:09.340Z,17.40
2022-08-31T03:58:38.941Z,17.40
2022-08-31T04:01:07.678Z,17.40
2022-08-31T04:03:37.547Z,17.30
2022-08-31T04:06:10.504Z,17.30
2022-08-31T04:08:39.669Z,17.30
2022-08-31T04:11:12.741Z,17.20
2022-08-31T04:13:41.887Z,17.20
2022-08-31T04:16:12.346Z,17.10
2022-08-31T04:18:41.492Z,17.10
2022-08-31T04:21:13.681Z,17.00
2022-08-31T04:23:41.995Z,17.00
2022-08-31T04:26:20.830Z,16.90
2022-08-31T04:28:49.701Z,16.90
2022-08-31T04:31:19.600Z,16.80
2022-08-31T04:33:48.463Z,16.80
2022-08-31T04:36:20.748Z,16.80
2022-08-31T04:38:52.396Z,16.80
2022-08-31T04:41:25.073Z,16.70
2022-08-31T04:43:55.947Z,16.70
2022-08-31T04:46:24.877Z,16.70
2022-08-31T04:48:53.269Z,16.70
2022-08-31T04:51:24.582Z,16.70
2022-08-31T04:53:53.994Z,16.60
2022-08-31T04:56:26.457Z,16.60
2022-08-31T04:58:58.039Z,16.60
2022-08-31T05:01:35.973Z,16.60
2022-08-31T05:04:12.862Z,16.60
2022-08-31T05:06:44.951Z,16.60
2022-08-31T05:09:17.100Z,16.60
2022-08-31T05:11:47.227Z,16.50
2022-08-31T05:14:15.516Z,16.50
2022-08-31T05:16:44.897Z,16.50
2022-08-31T05:19:13.232Z,16.50
2022-08-31T05:21:43.808Z,16.50
2022-08-31T05:24:14.797Z,16.50
2022-08-31T05:26:49.134Z,16.50
2022-08-31T05:29:20.254Z,16.50
2022-08-31T05:31:52.249Z,16.50
2022-08-31T05:34:22.047Z,16.50
2022-08-31T05:36:53.832Z,16.50
2022-08-31T05:39:22.366Z,16.50
2022-08-31T05:41:52.039Z,16.40
2022-08-31T05:44:21.313Z,16.50
2022-08-31T05:46:54.693Z,16.40
2022-08-31T05:49:29.952Z,16.40
2022-08-31T05:52:00.500Z,16.40
2022-08-31T05:54:29.260Z,16.40
2022-08-31T05:57:01.189Z,16.40
2022-08-31T05:59:31.004Z,16.50
2022-08-31T06:02:00.416Z,16.50
2022-08-31T06:04:29.967Z,16.50
2022-08-31T06:06:58.399Z,16.50
2022-08-31T06:09:27.325Z,16.60
2022-08-31T06:11:55.592Z,16.60
2022-08-31T06:14:25.857Z,16.70
2022-08-31T06:16:56.653Z,16.70
2022-08-31T06:19:25.114Z,16.70
2022-08-31T06:21:53.569Z,16.70
2022-08-31T06:24:22.257Z,16.80
2022-08-31T06:26:56.823Z,16.80
2022-08-31T06:29:31.437Z,16.90
2022-08-31T06:32:00.497Z,17.00
2022-08-31T06:34:29.960Z,17.20
2022-08-31T06:36:58.296Z,17.30
2022-08-31T06:39:26.573Z,17.30
2022-08-31T06:41:56.090Z,17.30
2022-08-31T06:44:26.294Z,17.50
2022-08-31T06:46:54.951Z,17.70
2022-08-31T06:49:24.203Z,17.80
2022-08-31T06:51:52.713Z,17.90
2022-08-31T06:54:29.506Z,18.00
2022-08-31T06:57:00.270Z,18.10
2022-08-31T06:59:30.359Z,18.20
2022-08-31T07:02:00.414Z,18.30
2022-08-31T07:04:32.549Z,18.40
2022-08-31T07:07:00.855Z,18.50
2022-08-31T07:09:29.245Z,18.50
2022-08-31T07:11:57.458Z,18.70
2022-08-31T07:14:29.979Z,18.70
2022-08-31T07:16:59.784Z,18.70
2022-08-31T07:19:28.710Z,18.80
2022-08-31T07:21:59.427Z,18.90
2022-08-31T07:24:31.306Z,19.00
2022-08-31T07:27:04.250Z,19.10
2022-08-31T07:29:40.782Z,19.30
2022-08-31T07:32:10.537Z,19.40
2022-08-31T07:34:40.200Z,19.20
2022-08-31T07:37:26.292Z,19.20
2022-08-31T07:40:12.824Z,19.30
2022-08-31T07:42:44.442Z,19.20
2022-08-31T07:45:22.970Z,19.30
2022-08-31T07:47:52.197Z,19.30
2022-08-31T07:50:22.647Z,19.30
2022-08-31T07:52:54.944Z,19.50
2022-08-31T07:55:26.214Z,19.60
2022-08-31T07:57:55.814Z,19.80
2022-08-31T08:00:28.396Z,19.90
2022-08-31T08:03:01.587Z,20.10
2022-08-31T08:05:31.862Z,20.20
2022-08-31T08:08:08.442Z,20.30
2022-08-31T08:10:42.478Z,20.30
2022-08-31T08:13:12.512Z,20.50
2022-08-31T08:15:42.409Z,20.60
2022-08-31T08:18:13.282Z,20.60
2022-08-31T08:20:42.219Z,20.60
2022-08-31T08:23:13.921Z,20.60
2022-08-31T08:25:45.093Z,20.60
2022-08-31T08:28:38.103Z,20.70
2022-08-31T08:31:07.998Z,20.80
2022-08-31T08:33:37.605Z,20.80
2022-08-31T08:36:08.764Z,21.00
2022-08-31T08:38:40.129Z,21.00
2022-08-31T08:41:13.731Z,21.10
2022-08-31T08:43:52.809Z,21.30
2022-08-31T08:46:35.194Z,21.50
2022-08-31T08:49:18.009Z,21.60
2022-08-31T08:51:50.655Z,21.70
2022-08-31T08:54:30.157Z,21.90
2022-08-31T08:57:01.503Z,21.90
2022-08-31T08:59:30.312Z,22.10
2022-08-31T09:02:06.599Z,22.00
2022-08-31T09:05:13.174Z,22.00
2022-08-31T09:07:58.676Z,22.20
2022-08-31T09:10:34.418Z,22.30
2022-08-31T09:13:19.049Z,22.30
2022-08-31T09:16:13.052Z,22.50
2022-08-31T09:18:51.093Z,22.70
2022-08-31T09:21:25.358Z,22.70
2022-08-31T09:24:02.540Z,22.90
2022-08-31T09:26:35.725Z,23.00
2022-08-31T09:29:04.969Z,23.10
2022-08-31T09:31:38.663Z,23.20
2022-08-31T09:34:16.829Z,23.30
2022-08-31T09:36:45.245Z,23.30
2022-08-31T09:39:20.931Z,23.30
2022-08-31T09:41:51.146Z,23.40
2022-08-31T09:44:31.717Z,23.60
2022-08-31T09:47:04.485Z,23.60
2022-08-31T09:49:37.697Z,23.60
2022-08-31T09:52:48.405Z,23.50
2022-08-31T09:55:24.926Z,23.40
2022-08-31T09:57:59.059Z,23.40
2022-08-31T10:00:34.420Z,23.40
2022-08-31T10:03:19.044Z,23.30
2022-08-31T10:05:51.767Z,23.30
2022-08-31T10:08:39.718Z,23.50
2022-08-31T10:11:15.821Z,23.60
2022-08-31T10:13:54.903Z,23.70
2022-08-31T10:16:30.394Z,24.00
2022-08-31T10:19:03.236Z,24.10
2022-08-31T10:21:45.436Z,24.10
2022-08-31T10:24:28.112Z,24.30
2022-08-31T10:27:08.277Z,24.50
2022-08-31T10:29:44.153Z,24.80
2022-08-31T10:32:34.796Z,24.80
2022-08-31T10:35:11.031Z,24.80
2022-08-31T10:37:55.050Z,24.60
2022-08-31T10:40:32.061Z,24.70
2022-08-31T10:43:14.267Z,24.80
2022-08-31T10:45:45.935Z,25.10
2022-08-31T10:48:14.523Z,25.30
2022-08-31T10:50:58.795Z,25.50
2022-08-31T10:53:47.190Z,25.60
2022-08-31T10:56:24.103Z,25.70
2022-08-31T10:59:15.974Z,25.90
2022-08-31T11:01:55.647Z,26.00
2022-08-31T11:04:58.353Z,26.20
2022-08-31T11:07:39.970Z,26.30
2022-08-31T11:10:43.219Z,26.50
2022-08-31T11:14:00.508Z,26.60
2022-08-31T11:16:51.824Z,26.80
2022-08-31T11:20:27.222Z,26.80
2022-08-31T11:23:28.447Z,26.80
2022-08-31T11:26:45.152Z,27.00
2022-08-31T11:29:32.325Z,27.00
2022-08-31T11:32:11.122Z,27.00
2022-08-31T11:34:49.646Z,27.10
2022-08-31T11:37:57.208Z,27.30
2022-08-31T11:41:01.189Z,27.50
2022-08-31T11:43:56.095Z,27.70
2022-08-31T11:47:07.864Z,27.80
2022-08-31T11:49:45.023Z,27.80
2022-08-31T11:52:34.474Z,27.70
2022-08-31T11:55:16.576Z,27.70
2022-08-31T11:58:20.878Z,27.90
2022-08-31T12:00:58.574Z,27.80
2022-08-31T12:03:52.567Z,27.90
2022-08-31T12:07:11.148Z,27.80
2022-08-31T12:10:27.517Z,27.80
2022-08-31T12:13:34.109Z,28.10
2022-08-31T12:16:14.985Z,28.00
2022-08-31T12:19:27.520Z,27.70
2022-08-31T12:22:18.526Z,27.50
2022-08-31T12:25:03.322Z,27.40
2022-08-31T12:27:42.638Z,27.30
2022-08-31T12:30:20.547Z,27.00
2022-08-31T12:33:00.210Z,27.00
2022-08-31T12:35:31.558Z,26.90
2022-08-31T12:38:02.760Z,26.60
2022-08-31T12:40:34.193Z,26.50
2022-08-31T12:43:07.481Z,26.60
2022-08-31T12:46:26.305Z,26.70
2022-08-31T12:49:21.743Z,26.40
2022-08-31T12:51:56.073Z,26.20
2022-08-31T12:55:09.195Z,26.10
2022-08-31T12:58:24.042Z,25.90
2022-08-31T13:00:52.383Z,25.90
2022-08-31T13:03:25.135Z,25.90
2022-08-31T13:06:08.541Z,25.80
2022-08-31T13:08:40.913Z,25.80
2022-08-31T13:11:33.144Z,25.70
2022-08-31T13:14:18.201Z,25.80
2022-08-31T13:16:50.069Z,25.90
2022-08-31T13:19:25.751Z,26.00
2022-08-31T13:21:59.394Z,26.20
2022-08-31T13:24:31.387Z,26.20
2022-08-31T13:27:13.628Z,26.20
2022-08-31T13:29:44.156Z,26.00
2022-08-31T13:32:15.505Z,25.80
2022-08-31T13:34:43.772Z,25.80
2022-08-31T13:37:31.389Z,25.70
2022-08-31T13:40:08.897Z,25.60
2022-08-31T13:42:41.569Z,25.50
2022-08-31T13:45:27.379Z,25.50
2022-08-31T13:47:59.251Z,25.60
2022-08-31T13:50:34.077Z,25.70
2022-08-31T13:55:54.876Z,26.00
2022-08-31T13:58:29.558Z,26.10
2022-08-31T14:01:19.834Z,26.00
2022-08-31T14:03:57.372Z,25.90
2022-08-31T14:06:32.185Z,26.00
2022-08-31T14:09:08.008Z,25.90
2022-08-31T14:11:36.618Z,25.80
2022-08-31T14:14:08.802Z,25.80
2022-08-31T14:16:43.688Z,25.90
2022-08-31T14:19:14.500Z,25.80
2022-08-31T14:21:43.725Z,25.80
2022-08-31T14:24:13.801Z,25.70
2022-08-31T14:26:44.312Z,25.60
2022-08-31T14:29:15.597Z,25.50
2022-08-31T14:31:48.683Z,25.30
2022-08-31T14:34:30.287Z,25.30
2022-08-31T14:37:06.498Z,25.30
2022-08-31T14:39:41.788Z,25.30
2022-08-31T14:42:16.638Z,25.20
2022-08-31T14:44:56.716Z,25.20
2022-08-31T14:47:28.690Z,25.30
2022-08-31T14:50:05.303Z,25.20
2022-08-31T14:52:34.648Z,25.10
2022-08-31T14:55:09.053Z,25.10
2022-08-31T14:57:40.435Z,25.00
2022-08-31T15:00:11.699Z,25.00
2022-08-31T15:02:42.072Z,25.00
2022-08-31T15:05:11.546Z,24.90
2022-08-31T15:07:42.536Z,24.80
2022-08-31T15:10:13.430Z,24.80
2022-08-31T15:12:41.736Z,24.80
2022-08-31T15:15:11.143Z,24.80
2022-08-31T15:17:40.231Z,24.70
2022-08-31T15:20:11.349Z,24.80
2022-08-31T15:22:41.017Z,24.80
2022-08-31T15:25:12.957Z,24.70
2022-08-31T15:27:44.377Z,24.80
2022-08-31T15:30:19.907Z,24.90
2022-08-31T15:32:49.731Z,24.90
2022-08-31T15:35:23.503Z,24.90
2022-08-31T15:37:56.542Z,24.90
2022-08-31T15:40:29.441Z,24.90
2022-08-31T15:42:58.316Z,24.90
2022-08-31T15:45:30.565Z,24.80
2022-08-31T15:48:17.582Z,24.80
2022-08-31T15:50:52.601Z,24.80
2022-08-31T15:53:25.443Z,24.80
2022-08-31T15:55:55.127Z,24.80
2022-08-31T15:58:25.276Z,24.80
2022-08-31T16:00:53.685Z,24.70
2022-08-31T16:03:22.084Z,24.70
2022-08-31T16:05:50.447Z,24.80
2022-08-31T16:08:22.230Z,24.60
2022-08-31T16:10:50.679Z,24.60
2022-08-31T16:13:20.382Z,24.60
2022-08-31T16:15:53.507Z,24.60
2022-08-31T16:18:23.241Z,24.60
2022-08-31T16:20:51.958Z,24.50
2022-08-31T16:23:21.069Z,24.50
2022-08-31T16:25:49.658Z,24.50
2022-08-31T16:28:21.655Z,24.40
2022-08-31T16:30:51.718Z,24.40
2022-08-31T16:33:21.354Z,24.40
2022-08-31T16:35:50.209Z,24.30
2022-08-31T16:38:19.355Z,24.30
2022-08-31T16:40:47.700Z,24.20
2022-08-31T16:43:16.033Z,24.10
2022-08-31T16:45:45.789Z,24.00
2022-08-31T16:48:31.672Z,23.90
2022-08-31T16:51:02.675Z,23.80
2022-08-31T16:53:31.860Z,23.70
2022-08-31T16:56:00.657Z,23.60
2022-08-31T16:58:50.650Z,23.60
2022-08-31T17:01:22.958Z,23.60
2022-08-31T17:03:55.878Z,23.50
2022-08-31T17:06:25.109Z,23.50
2022-08-31T17:08:57.805Z,23.50
2022-08-31T17:11:31.381Z,23.50
2022-08-31T17:14:02.427Z,23.40
2022-08-31T17:16:35.043Z,23.40
2022-08-31T17:19:08.002Z,23.40
2022-08-31T17:21:46.076Z,23.40
2022-08-31T17:24:16.025Z,23.30
2022-08-31T17:26:44.532Z,23.30
2022-08-31T17:29:14.212Z,23.30
2022-08-31T17:31:46.741Z,23.30
2022-08-31T17:34:18.583Z,23.30
2022-08-31T17:36:49.163Z,23.20
2022-08-31T17:39:20.102Z,23.20
2022-08-31T17:41:48.854Z,23.20
2022-08-31T17:44:18.602Z,23.10
2022-08-31T17:46:52.479Z,23.00
2022-08-31T17:49:24.981Z,23.00
2022-08-31T17:51:56.500Z,23.00
2022-08-31T17:54:32.784Z,23.00
2022-08-31T17:57:03.210Z,22.90
2022-08-31T17:59:34.439Z,22.90
2022-08-31T18:02:08.909Z,22.80
2022-08-31T18:04:38.466Z,22.90
2022-08-31T18:07:09.118Z,22.80
2022-08-31T18:09:41.797Z,22.80
2022-08-31T18:12:10.592Z,22.70
2022-08-31T18:14:41.482Z,22.70
2022-08-31T18:17:16.278Z,22.60
2022-08-31T18:19:45.747Z,22.60
2022-08-31T18:22:15.210Z,22.60
2022-08-31T18:24:44.466Z,22.50
2022-08-31T18:27:16.182Z,22.50
2022-08-31T18:29:47.047Z,22.50
2022-08-31T18:32:17.191Z,22.40
2022-08-31T18:34:47.039Z,22.40
2022-08-31T18:37:25.639Z,22.40
2022-08-31T18:40:25.893Z,22.30
2022-08-31T18:43:13.890Z,22.30
2022-08-31T18:45:42.142Z,22.20
2022-08-31T18:48:35.125Z,22.20
2022-08-31T18:51:03.613Z,22.10
2022-08-31T18:53:34.566Z,22.00
2022-08-31T18:56:10.220Z,22.00
2022-08-31T18:58:39.947Z,22.00
2022-08-31T19:01:11.395Z,21.90
2022-08-31T19:03:42.478Z,21.90
2022-08-31T19:06:18.919Z,21.80
2022-08-31T19:08:47.142Z,21.80
2022-08-31T19:11:15.845Z,21.80
2022-08-31T19:13:46.143Z,21.70
2022-08-31T19:16:19.023Z,21.60
2022-08-31T19:18:49.104Z,21.50
2022-08-31T19:21:23.861Z,21.50
2022-08-31T19:23:53.027Z,21.40
2022-08-31T19:26:26.842Z,21.40
2022-08-31T19:28:55.946Z,21.30
2022-08-31T19:31:26.891Z,21.30
2022-08-31T19:33:57.752Z,21.30
2022-08-31T19:36:27.233Z,21.30
2022-08-31T19:38:56.773Z,21.20
2022-08-31T19:41:27.560Z,21.10
2022-08-31T19:44:05.692Z,21.00
2022-08-31T19:46:36.821Z,21.00
2022-08-31T19:49:10.949Z,20.90
2022-08-31T19:51:41.369Z,20.90
2022-08-31T19:54:12.411Z,20.80
2022-08-31T19:56:43.686Z,20.80
2022-08-31T19:59:20.027Z,20.80
2022-08-31T20:01:52.136Z,20.80
2022-08-31T20:04:26.217Z,20.80
2022-08-31T20:06:55.539Z,20.80
2022-08-31T20:09:25.385Z,20.70
2022-08-31T20:11:56.875Z,20.70
2022-08-31T20:14:25.177Z,20.70
2022-08-31T20:16:54.861Z,20.70
2022-08-31T20:19:25.699Z,20.70
2022-08-31T20:21:55.054Z,20.60
2022-08-31T20:33:40.522Z,20.50
2022-08-31T20:36:19.043Z,20.40
2022-08-31T20:42:11.294Z,20.30
2022-08-31T20:44:39.902Z,20.30
2022-08-31T20:47:28.109Z,20.30
2022-08-31T20:49:58.677Z,20.20
2022-08-31T20:52:31.846Z,20.20
2022-08-31T20:55:37.442Z,20.20
2022-08-31T21:05:46.105Z,20.10
2022-08-31T21:08:16.774Z,20.00
2022-08-31T21:13:42.806Z,20.10
2022-08-31T21:16:11.767Z,20.00
2022-08-31T21:18:40.969Z,20.00
2022-08-31T21:21:14.511Z,19.90
2022-08-31T21:23:46.332Z,19.90
2022-08-31T21:26:19.634Z,19.80
2022-08-31T21:28:48.671Z,19.90
2022-08-31T21:31:28.833Z,19.80
2022-08-31T21:34:01.397Z,19.80
2022-08-31T21:36:32.952Z,19.80
2022-08-31T21:39:17.206Z,19.80
2022-08-31T21:41:46.371Z,19.70
2022-08-31T21:44:17.540Z,19.70
2022-08-31T21:46:50.402Z,19.60
2022-08-31T21:49:20.528Z,19.60
2022-08-31T21:51:51.251Z,19.50
2022-08-31T21:54:23.404Z,19.50
2022-08-31T21:56:55.422Z,19.50
2022-08-31T21:59:27.450Z,19.40
2022-08-31T22:02:01.020Z,19.40
2022-08-31T22:04:30.541Z,19.40
2022-08-31T22:06:59.576Z,19.30
2022-08-31T22:09:31.490Z,19.30
2022-08-31T22:12:04.021Z,19.20
2022-08-31T22:14:33.767Z,19.20
2022-08-31T22:17:05.456Z,19.20
2022-08-31T22:19:39.028Z,19.20
2022-08-31T22:22:11.946Z,19.10
2022-08-31T22:24:42.742Z,19.10
2022-08-31T22:27:13.780Z,19.00
2022-08-31T22:29:42.407Z,19.00
2022-08-31T22:32:15.215Z,19.00
2022-08-31T22:34:46.056Z,18.90
2022-08-31T22:48:00.991Z,18.70
2022-08-31T22:50:29.380Z,18.70
2022-08-31T22:52:57.650Z,18.70
2022-08-31T22:55:25.830Z,18.60
2022-08-31T22:57:54.354Z,18.50
2022-08-31T23:00:24.717Z,18.50
2022-08-31T23:02:53.997Z,18.50
2022-08-31T23:05:24.487Z,18.40
2022-08-31T23:07:53.230Z,18.30
2022-08-31T23:10:24.078Z,18.30
2022-08-31T23:12:52.616Z,18.30
2022-08-31T23:15:26.463Z,18.30
2022-08-31T23:17:54.708Z,18.30
2022-08-31T23:20:24.988Z,18.20
2022-08-31T23:22:55.365Z,18.20
2022-08-31T23:25:25.182Z,18.10
2022-08-31T23:27:53.793Z,18.10
2022-08-31T23:30:25.618Z,18.00
2022-08-31T23:32:54.359Z,18.00
2022-08-31T23:35:25.209Z,17.90
2022-08-31T23:37:54.287Z,17.80
2022-08-31T23:40:22.578Z,17.80
2022-08-31T23:42:50.980Z,17.70
2022-08-31T23:45:19.316Z,17.70
2022-08-31T23:47:51.411Z,17.70
2022-08-31T23:50:19.841Z,17.60
2022-08-31T23:52:52.121Z,17.60
2022-08-31T23:55:21.885Z,17.50
2022-08-31T23:57:50.081Z,17.40
